createdAt,value
2018-11-06T05:51:39.265Z,99.61
2018-11-06T05:52:40.186Z,99.99
2018-11-06T05:53:39.076Z,99.09
2018-11-06T05:54:39.212Z,98.47
2018-11-06T05:55:39.074Z,98.10
2018-11-06T05:56:39.045Z,97.58
2018-11-06T05:57:39.051Z,97.58
2018-11-06T05:58:39.060Z,97.37
2018-11-06T05:59:39.016Z,97.37
2018-11-06T06:00:38.990Z,97.37
2018-11-06T06:01:38.951Z,96.95
2018-11-06T06:02:39.929Z,97.68
2018-11-06T06:03:38.952Z,98.41
2018-11-06T06:04:38.933Z,98.51
2018-11-06T06:05:39.012Z,98.20
2018-11-06T06:06:38.863Z,98.68
2018-11-06T06:07:38.850Z,98.78
2018-11-06T06:08:38.885Z,99.13
2018-11-06T06:09:38.933Z,99.09
2018-11-06T06:10:38.920Z,99.92
2018-11-06T06:11:39.461Z,98.99
2018-11-06T06:14:01.465Z,99.99
2018-11-06T06:15:01.217Z,99.71
2018-11-06T06:16:01.257Z,99.71
2018-11-06T06:17:01.307Z,99.61
2018-11-06T06:18:01.201Z,99.82
2018-11-06T06:19:01.185Z,99.99
2018-11-06T06:20:01.153Z,99.82
2018-11-06T06:21:01.112Z,98.99
2018-11-06T06:22:01.144Z,99.19
2018-11-06T06:23:01.080Z,98.88
2018-11-06T06:24:01.113Z,99.19
2018-11-06T06:25:01.842Z,98.99
2018-11-06T06:26:01.159Z,99.09
2018-11-06T06:27:01.289Z,99.71
2018-11-06T06:28:01.115Z,99.92
2018-11-06T06:29:01.058Z,99.61
2018-11-06T06:30:01.104Z,99.61
2018-11-06T06:31:01.015Z,99.92
2018-11-06T06:32:00.994Z,99.61
2018-11-06T06:33:00.979Z,99.19
2018-11-06T06:34:01.013Z,99.99
2018-11-06T06:35:01.043Z,99.99
2018-11-06T06:36:00.958Z,99.99
2018-11-06T06:37:01.009Z,99.99
2018-11-06T06:38:00.932Z,99.99
2018-11-06T06:39:00.979Z,99.99
2018-11-06T06:40:00.928Z,99.99
2018-11-06T06:41:01.006Z,99.99
2018-11-06T06:42:00.892Z,99.99
2018-11-06T06:43:00.878Z,99.99
2018-11-06T06:44:00.868Z,99.99
2018-11-06T06:45:00.919Z,99.99
2018-11-06T06:46:00.905Z,99.99
2018-11-06T06:47:00.835Z,99.99
2018-11-06T06:48:00.827Z,99.99
2018-11-06T06:49:00.865Z,99.99
2018-11-06T06:50:00.959Z,99.99
2018-11-06T06:51:00.868Z,99.99
2018-11-06T06:52:00.797Z,99.99
2018-11-06T06:53:00.803Z,99.98
2018-11-06T06:54:00.841Z,99.99
2018-11-06T06:55:00.857Z,99.93
2018-11-06T06:56:00.852Z,99.98
2018-11-06T06:57:00.807Z,99.99
2018-11-06T06:58:00.762Z,99.99
2018-11-06T06:59:00.708Z,99.98
2018-11-06T07:00:00.726Z,99.99
2018-11-06T07:01:00.748Z,99.77
2018-11-06T07:02:00.764Z,99.62
2018-11-06T07:03:00.732Z,99.66
2018-11-06T07:04:00.703Z,99.99
2018-11-06T07:05:00.640Z,99.99
2018-11-06T07:06:00.718Z,99.99
2018-11-06T07:07:00.619Z,99.82
2018-11-06T07:08:00.841Z,99.82
2018-11-06T07:09:00.600Z,99.72
2018-11-06T07:10:00.590Z,99.52
2018-11-06T07:11:00.603Z,99.82
2018-11-06T07:12:00.593Z,99.99
2018-11-06T07:13:00.613Z,99.82
2018-11-06T07:14:00.617Z,99.99
2018-11-06T07:15:00.610Z,99.88
2018-11-06T07:16:00.530Z,99.99
2018-11-06T07:17:00.583Z,99.99
2018-11-06T07:18:00.560Z,99.99
2018-11-06T07:19:00.489Z,99.99
2018-11-06T07:20:00.483Z,99.99
2018-11-06T07:21:00.504Z,99.99
2018-11-06T07:22:00.451Z,99.99
2018-11-06T07:23:00.494Z,99.99
2018-11-06T07:24:00.539Z,99.99
2018-11-06T07:25:00.458Z,99.99
2018-11-06T07:26:00.563Z,99.99
2018-11-06T07:27:00.503Z,99.99
2018-11-06T07:28:00.424Z,99.99
2018-11-06T07:29:00.533Z,99.99
2018-11-06T07:30:00.360Z,99.99
2018-11-06T07:31:00.384Z,99.99
2018-11-06T07:32:00.379Z,99.99
2018-11-06T07:33:00.408Z,99.99
2018-11-06T07:34:00.613Z,99.99
2018-11-06T07:35:00.586Z,99.99
2018-11-06T07:36:00.567Z,99.99
2018-11-06T07:37:00.571Z,99.99
2018-11-06T07:38:00.411Z,99.99
2018-11-06T07:39:00.616Z,99.99
2018-11-06T07:40:00.462Z,99.99
2018-11-06T07:41:00.438Z,99.99
2018-11-06T07:42:00.435Z,99.99
2018-11-06T07:43:00.216Z,99.99
2018-11-06T07:44:00.234Z,99.99
2018-11-06T07:45:00.234Z,99.99
2018-11-06T07:46:00.239Z,99.99
2018-11-06T07:47:00.254Z,99.99
2018-11-06T07:48:00.211Z,99.99
2018-11-06T07:49:00.285Z,99.99
2018-11-06T07:50:01.211Z,99.99
2018-11-06T07:51:00.213Z,99.99
2018-11-06T07:52:00.205Z,99.99
2018-11-06T07:53:00.140Z,99.99
2018-11-06T07:54:00.114Z,99.99
2018-11-06T07:55:00.109Z,99.99
2018-11-06T07:56:00.138Z,99.99
2018-11-06T07:57:00.148Z,99.99
2018-11-06T07:58:00.117Z,99.99
2018-11-06T07:59:00.114Z,99.99
2018-11-06T08:00:00.054Z,99.99
2018-11-06T08:01:00.125Z,99.99
2018-11-06T08:02:00.089Z,99.99
2018-11-06T08:03:00.349Z,99.99
2018-11-06T08:04:00.192Z,99.99
2018-11-06T08:05:00.118Z,99.99
2018-11-06T08:06:00.075Z,99.99
2018-11-06T08:07:00.097Z,99.99
2018-11-06T08:08:00.008Z,99.99
2018-11-06T08:08:59.939Z,99.99
2018-11-06T08:09:59.920Z,99.99
2018-11-06T08:10:59.912Z,99.99
2018-11-06T08:11:59.938Z,99.99
2018-11-06T08:12:59.980Z,99.99
2018-11-06T08:13:59.891Z,99.99
2018-11-06T08:36:54.565Z,99.99
2018-11-06T08:37:54.518Z,99.99
2018-11-06T08:38:57.542Z,99.99
2018-11-06T08:49:23.076Z,99.99
2018-11-06T08:50:23.005Z,99.99
2018-11-06T08:51:22.937Z,99.99
2018-11-06T08:52:22.917Z,99.99
2018-11-06T08:53:22.891Z,99.99
2018-11-06T08:54:23.115Z,99.99
2018-11-06T08:55:22.857Z,99.99
2018-11-06T08:56:22.876Z,99.99
2018-11-06T08:57:22.975Z,99.99
2018-11-06T09:19:03.613Z,96.47
2018-11-06T09:20:03.618Z,95.29
2018-11-06T09:21:03.493Z,95.20
2018-11-06T09:22:02.718Z,95.50
2018-11-06T09:23:03.006Z,94.48
2018-11-06T09:24:03.002Z,94.48
2018-11-06T09:25:02.602Z,95.15
2018-11-06T09:26:02.624Z,95.25
2018-11-06T09:27:02.559Z,95.40
2018-11-06T09:28:02.620Z,95.36
2018-11-06T09:29:02.519Z,95.09
2018-11-06T09:30:02.531Z,96.32
2018-11-06T09:31:02.650Z,96.48
2018-11-06T09:32:02.533Z,95.66
2018-11-06T09:33:02.462Z,96.89
2018-11-06T09:34:02.528Z,96.28
2018-11-06T09:35:02.477Z,96.07
2018-11-06T09:36:02.462Z,95.87
2018-11-06T09:37:02.501Z,96.28
2018-11-06T09:38:02.485Z,95.87
2018-11-06T09:39:02.444Z,96.58
2018-11-06T09:40:02.443Z,95.25
2018-11-06T09:41:02.523Z,95.46
2018-11-06T09:42:03.431Z,94.43
2018-11-06T09:43:02.371Z,94.33
2018-11-06T09:44:02.373Z,94.39
2018-11-06T09:45:02.417Z,94.90
2018-11-06T09:46:02.332Z,94.39
2018-11-06T09:47:02.299Z,94.18
2018-11-06T09:48:02.310Z,94.29
2018-11-06T09:49:02.287Z,94.29
2018-11-06T09:50:02.263Z,94.90
2018-11-06T09:51:02.257Z,95.41
2018-11-06T09:52:02.318Z,95.51
2018-11-06T09:53:02.272Z,95.21
2018-11-06T09:54:02.303Z,95.10
2018-11-06T09:55:02.209Z,94.39
2018-11-06T09:56:02.196Z,94.29
2018-11-06T09:57:02.242Z,93.98
2018-11-06T09:58:02.293Z,93.98
2018-11-06T09:59:02.215Z,93.43
2018-11-06T10:00:02.370Z,93.63
2018-11-06T10:01:02.196Z,93.73
2018-11-06T10:02:02.195Z,93.93
2018-11-06T10:03:02.141Z,93.63
2018-11-06T10:04:02.119Z,93.22
2018-11-06T10:05:02.155Z,94.04
2018-11-06T10:16:37.719Z,94.20
2018-11-06T10:17:38.111Z,93.79
2018-11-06T10:18:38.043Z,93.69
2018-11-06T10:19:37.285Z,93.07
2018-11-06T10:20:37.234Z,93.13
2018-11-06T10:21:37.184Z,92.93
2018-11-06T10:22:37.384Z,92.72
2018-11-06T10:23:42.737Z,92.32
2018-11-06T10:24:38.122Z,93.09
2018-11-06T10:25:37.266Z,94.01
2018-11-06T10:26:37.200Z,94.62
2018-11-06T10:27:37.148Z,95.13
2018-11-06T10:28:37.154Z,94.62
2018-11-06T10:29:37.136Z,93.19
2018-11-06T10:30:37.080Z,93.15
2018-11-06T10:31:37.091Z,92.94
2018-11-06T10:32:37.002Z,94.07
2018-11-06T10:33:37.114Z,94.07
2018-11-06T10:34:37.069Z,92.84
2018-11-06T10:35:37.088Z,92.54
2018-11-06T10:36:37.159Z,92.39
2018-11-06T10:37:37.057Z,93.00
2018-11-06T10:38:37.133Z,92.59
2018-11-06T10:39:37.639Z,93.31
2018-11-06T10:40:37.676Z,93.71
2018-11-06T10:41:36.989Z,92.65
2018-11-06T10:42:37.095Z,91.02
2018-11-06T10:43:37.099Z,93.67
2018-11-06T10:44:36.966Z,94.59
2018-11-06T10:45:37.065Z,94.75
2018-11-06T10:46:36.919Z,93.63
2018-11-06T10:47:36.904Z,92.81
2018-11-06T10:48:36.984Z,93.48
2018-11-06T10:49:38.549Z,93.79
2018-11-06T10:50:37.514Z,93.89
2018-11-06T10:51:37.026Z,94.60
2018-11-06T10:52:36.913Z,93.38
2018-11-06T10:53:37.153Z,92.83
2018-11-06T10:54:38.521Z,90.28
2018-11-06T10:55:36.848Z,91.81
2018-11-06T10:56:37.611Z,93.80
2018-11-06T10:57:36.849Z,92.89
2018-11-06T10:58:37.647Z,92.07
2018-11-06T10:59:37.487Z,91.56
2018-11-06T11:00:36.804Z,90.44
2018-11-06T11:01:38.813Z,91.87
2018-11-06T11:02:36.771Z,89.99
2018-11-06T11:03:36.772Z,87.35
2018-11-06T11:04:36.657Z,87.75
2018-11-06T11:05:38.542Z,88.93
2018-11-06T11:06:36.704Z,88.42
2018-11-06T11:07:36.757Z,88.83
2018-11-06T11:08:36.624Z,87.10
2018-11-06T11:09:36.722Z,90.46
2018-11-06T11:10:36.654Z,87.26
2018-11-06T11:11:36.677Z,88.89
2018-11-06T11:12:36.847Z,87.57
2018-11-06T11:13:36.720Z,90.11
2018-11-06T11:14:36.656Z,90.22
2018-11-06T11:15:36.604Z,89.20
2018-11-06T11:16:36.574Z,87.26
2018-11-06T11:17:36.496Z,86.96
2018-11-06T11:18:36.516Z,87.37
2018-11-06T11:19:36.548Z,87.47
2018-11-06T11:20:36.525Z,86.61
2018-11-06T11:21:36.660Z,89.36
2018-11-06T11:22:36.591Z,88.34
2018-11-06T11:23:36.558Z,87.63
2018-11-06T11:24:37.081Z,88.85
2018-11-06T11:25:36.672Z,87.53
2018-11-06T11:26:36.531Z,87.99
2018-11-06T11:27:36.517Z,87.99
2018-11-06T11:28:36.403Z,86.57
2018-11-06T11:29:36.457Z,84.34
2018-11-06T11:30:36.405Z,83.22
2018-11-06T11:31:36.428Z,86.77
2018-11-06T11:32:36.345Z,83.62
2018-11-06T11:33:36.435Z,83.99
2018-11-06T11:34:37.018Z,84.20
2018-11-06T11:35:36.392Z,86.94
2018-11-06T11:36:37.022Z,86.74
2018-11-06T11:37:36.361Z,86.29
2018-11-06T11:38:36.433Z,86.39
2018-11-06T11:39:36.284Z,86.90
2018-11-06T11:40:36.437Z,86.49
2018-11-06T11:41:37.204Z,87.00
2018-11-06T11:42:36.236Z,85.58
2018-11-06T11:43:36.389Z,87.10
2018-11-06T11:44:36.261Z,84.46
2018-11-06T11:45:36.287Z,85.58
2018-11-06T11:46:36.217Z,83.00
2018-11-06T11:47:36.179Z,83.31
2018-11-06T11:48:36.261Z,82.90
2018-11-06T11:49:37.580Z,84.22
2018-11-06T11:50:36.164Z,85.84
2018-11-06T11:51:36.195Z,83.10
2018-11-06T11:52:36.161Z,82.09
2018-11-06T11:53:36.110Z,82.90
2018-11-06T11:54:36.129Z,85.53
2018-11-06T11:55:36.121Z,84.42
2018-11-06T11:56:36.123Z,83.06
2018-11-06T11:57:36.180Z,83.06
2018-11-06T11:58:36.295Z,82.76
2018-11-06T11:59:36.101Z,83.87
2018-11-06T12:00:36.073Z,82.56
2018-11-06T12:01:35.996Z,83.57
2018-11-06T12:02:36.076Z,84.44
2018-11-06T12:03:36.029Z,83.17
2018-11-06T12:04:35.959Z,82.82
2018-11-06T12:05:36.198Z,83.03
2018-11-06T12:06:36.031Z,84.64
2018-11-06T12:07:36.030Z,84.34
2018-11-06T12:08:35.993Z,85.46
2018-11-06T12:09:35.974Z,85.66
2018-11-06T12:10:36.017Z,84.14
2018-11-06T12:11:36.533Z,85.36
2018-11-06T12:12:35.918Z,85.82
2018-11-06T12:13:35.970Z,86.02
2018-11-06T12:14:35.997Z,87.14
2018-11-06T12:15:35.842Z,86.02
2018-11-06T12:16:40.547Z,84.20
2018-11-06T12:17:36.167Z,86.13
2018-11-06T12:18:35.834Z,85.31
2018-11-06T12:19:35.825Z,85.31
2018-11-06T12:20:35.840Z,84.70
2018-11-06T12:21:35.784Z,83.49
2018-11-06T12:22:35.883Z,83.18
2018-11-06T12:23:35.723Z,82.75
2018-11-06T12:24:35.739Z,82.34
2018-11-06T12:25:35.913Z,82.24
2018-11-06T12:26:35.719Z,82.75
2018-11-06T12:27:35.857Z,83.15
2018-11-06T12:28:35.669Z,82.95
2018-11-06T12:29:35.658Z,82.64
2018-11-06T12:30:35.685Z,82.14
2018-11-06T12:31:35.670Z,82.64
2018-11-06T12:32:35.639Z,82.90
2018-11-06T12:33:35.623Z,83.31
2018-11-06T12:34:35.600Z,81.79
2018-11-06T12:35:35.612Z,82.50
2018-11-06T12:36:35.629Z,81.59
2018-11-06T12:37:35.663Z,81.49
2018-11-06T12:38:35.573Z,82.50
2018-11-06T12:39:35.547Z,82.90
2018-11-06T12:40:35.547Z,82.60
2018-11-06T12:41:35.521Z,81.49
2018-11-06T12:42:35.509Z,82.97
2018-11-06T12:43:35.549Z,83.17
2018-11-06T12:44:35.490Z,83.07
2018-11-06T12:45:35.491Z,81.15
2018-11-06T12:46:35.467Z,82.42
2018-11-06T12:47:35.454Z,81.92
2018-11-06T12:48:35.456Z,81.35
2018-11-06T12:49:35.481Z,82.67
2018-11-06T12:50:35.415Z,81.92
2018-11-06T12:51:35.412Z,84.45
2018-11-06T12:52:35.458Z,84.45
2018-11-06T12:53:35.473Z,84.00
2018-11-06T12:54:35.541Z,84.41
2018-11-06T12:55:35.456Z,81.07
2018-11-06T13:08:00.578Z,81.34
2018-11-06T13:09:00.262Z,81.23
2018-11-06T13:09:59.384Z,78.91
2018-11-06T13:10:59.339Z,77.90
2018-11-06T13:11:59.316Z,78.00
2018-11-06T13:12:59.290Z,79.17
2018-11-06T13:13:59.619Z,79.08
2018-11-06T13:14:59.465Z,78.97
2018-11-06T13:15:59.283Z,79.28
2018-11-06T13:16:59.361Z,79.48
2018-11-06T13:17:59.264Z,79.92
2018-11-06T13:18:59.236Z,80.08
2018-11-06T13:19:59.245Z,81.20
2018-11-06T13:20:59.273Z,79.88
2018-11-06T13:21:59.198Z,77.86
2018-11-06T13:22:59.195Z,78.97
2018-11-06T13:23:59.173Z,79.99
2018-11-06T13:24:59.178Z,78.77
2018-11-06T13:25:59.226Z,80.29
2018-11-06T13:26:59.142Z,80.08
2018-11-06T13:27:59.127Z,78.47
2018-11-06T13:28:59.114Z,78.77
2018-11-06T13:29:59.111Z,78.06
2018-11-06T13:30:59.094Z,77.86
2018-11-06T13:31:59.129Z,76.86
2018-11-06T13:32:59.070Z,77.46
2018-11-06T13:33:59.086Z,76.95
2018-11-06T13:34:59.070Z,77.66
2018-11-06T13:35:59.044Z,78.77
2018-11-06T13:36:59.026Z,78.27
2018-11-06T13:37:59.033Z,76.86
2018-11-06T13:38:59.055Z,78.77
2018-11-06T13:39:59.006Z,80.39
2018-11-06T13:40:59.016Z,78.77
2018-11-06T13:41:58.991Z,79.68
2018-11-06T13:42:59.176Z,79.28
2018-11-06T13:43:59.132Z,79.99
2018-11-06T13:44:59.071Z,79.38
2018-11-06T13:45:58.953Z,79.38
2018-11-06T13:46:58.951Z,78.88
2018-11-06T13:47:58.905Z,80.08
2018-11-06T13:48:58.904Z,78.47
2018-11-06T13:49:58.912Z,78.47
2018-11-06T13:50:58.903Z,78.06
2018-11-06T13:51:58.891Z,79.28
2018-11-06T13:52:58.922Z,78.06
2018-11-06T13:53:58.844Z,78.57
2018-11-06T13:54:58.842Z,79.08
2018-11-06T13:55:58.812Z,79.32
2018-11-06T13:56:58.856Z,78.20
2018-11-06T13:57:58.820Z,77.70
2018-11-06T13:58:58.783Z,79.01
2018-11-06T13:59:58.781Z,80.02
2018-11-06T14:00:58.758Z,80.43
2018-11-06T14:01:58.832Z,80.12
2018-11-06T14:02:58.968Z,80.12
2018-11-06T14:03:58.728Z,80.83
2018-11-06T14:04:58.724Z,79.82
2018-11-06T14:06:00.824Z,81.13
2018-11-06T14:06:58.866Z,81.44
2018-11-06T14:07:59.260Z,81.74
2018-11-06T14:08:59.754Z,82.45
2018-11-06T14:09:58.753Z,82.65
2018-11-06T14:10:58.753Z,81.54
2018-11-06T14:11:58.695Z,82.85
2018-11-06T14:12:58.710Z,82.35
2018-11-06T14:13:58.683Z,82.95
2018-11-06T14:14:58.641Z,83.05
2018-11-06T14:15:58.684Z,82.95
2018-11-06T14:16:58.834Z,82.95
2018-11-06T14:17:58.690Z,82.65
2018-11-06T14:18:58.737Z,82.75
2018-11-06T14:19:58.857Z,82.75
2018-11-06T14:20:58.687Z,81.94
2018-11-06T14:21:58.629Z,81.64
2018-11-06T14:22:58.636Z,82.04
2018-11-06T14:23:58.513Z,81.84
2018-11-06T14:24:58.682Z,82.04
2018-11-06T14:25:58.801Z,81.74
2018-11-06T14:26:58.550Z,82.04
2018-11-06T14:27:58.474Z,81.54
2018-11-06T14:28:58.557Z,81.88
2018-11-06T14:30:02.320Z,81.44
2018-11-06T14:30:58.569Z,81.98
2018-11-06T14:31:58.435Z,82.08
2018-11-06T14:32:58.545Z,81.78
2018-11-06T14:33:58.408Z,81.57
2018-11-06T14:34:58.545Z,81.88
2018-11-06T14:35:58.637Z,81.68
2018-11-06T14:36:58.422Z,82.18
2018-11-06T14:37:58.465Z,82.79
2018-11-06T14:38:58.361Z,82.59
2018-11-06T14:39:58.343Z,82.69
2018-11-06T14:40:58.409Z,82.59
2018-11-06T14:41:58.429Z,82.28
2018-11-06T14:42:58.447Z,82.08
2018-11-06T14:43:58.317Z,82.49
2018-11-06T14:44:58.304Z,82.49
2018-11-06T14:45:58.297Z,82.62
2018-11-06T14:46:58.406Z,81.82
2018-11-06T14:47:58.519Z,81.41
2018-11-06T14:48:58.355Z,82.62
2018-11-06T14:49:58.273Z,82.83
2018-11-06T14:50:58.264Z,83.07
2018-11-06T14:51:58.215Z,83.37
2018-11-06T14:52:58.242Z,84.04
2018-11-06T14:53:58.225Z,83.58
2018-11-06T14:54:58.189Z,84.59
2018-11-06T14:55:58.188Z,84.39
2018-11-06T14:56:58.185Z,84.48
2018-11-06T14:57:58.159Z,84.48
2018-11-06T14:58:58.270Z,83.82
2018-11-06T14:59:58.124Z,84.02
2018-11-06T15:00:58.257Z,83.92
2018-11-06T15:01:58.118Z,84.42
2018-11-06T15:02:58.974Z,84.22
2018-11-06T15:03:58.114Z,84.42
2018-11-06T15:04:58.081Z,84.02
2018-11-06T15:05:58.069Z,84.02
2018-11-06T15:06:58.117Z,84.12
2018-11-06T15:07:58.183Z,83.76
2018-11-06T15:08:59.668Z,84.06
2018-11-06T15:09:58.035Z,84.56
2018-11-06T15:10:58.021Z,84.56
2018-11-06T15:11:58.483Z,84.67
2018-11-06T15:12:58.051Z,84.56
2018-11-06T15:13:57.976Z,84.00
2018-11-06T15:14:57.997Z,85.21
2018-11-06T15:15:57.986Z,85.01
2018-11-06T15:16:58.055Z,85.31
2018-11-06T15:17:57.988Z,84.91
2018-11-06T15:18:57.921Z,84.61
2018-11-06T15:19:57.915Z,85.01
2018-11-06T15:20:57.990Z,85.31
2018-11-06T15:21:57.941Z,85.21
2018-11-06T15:22:57.976Z,85.05
2018-11-06T15:23:57.890Z,84.24
2018-11-06T15:24:57.938Z,84.55
2018-11-06T15:25:57.840Z,84.34
2018-11-06T15:26:57.854Z,84.55
2018-11-06T15:27:57.911Z,84.14
2018-11-06T15:28:57.982Z,83.12
2018-11-06T15:29:57.852Z,82.76
2018-11-06T15:30:57.797Z,83.17
2018-11-06T15:31:57.793Z,83.37
2018-11-06T15:32:57.797Z,82.35
2018-11-06T15:33:57.753Z,82.29
2018-11-06T15:34:57.819Z,82.39
2018-11-06T15:35:57.827Z,82.19
2018-11-06T15:37:08.455Z,81.78
2018-11-06T15:37:58.016Z,82.19
2018-11-06T15:38:57.849Z,81.78
2018-11-06T15:39:57.807Z,82.09
2018-11-06T15:40:58.104Z,82.12
2018-11-06T15:41:57.959Z,82.03
2018-11-06T15:42:57.763Z,81.62
2018-11-06T15:43:57.717Z,82.23
2018-11-06T15:44:57.729Z,81.41
2018-11-06T15:45:57.680Z,82.12
2018-11-06T15:46:57.643Z,81.76
2018-11-06T15:47:57.606Z,82.43
2018-11-06T15:48:57.646Z,82.33
2018-11-06T15:49:57.610Z,82.73
2018-11-06T15:50:57.587Z,82.06
2018-11-06T15:51:57.559Z,83.48
2018-11-06T15:52:57.543Z,82.98
2018-11-06T15:53:57.546Z,81.86
2018-11-06T15:54:57.543Z,82.10
2018-11-06T15:55:57.577Z,81.79
2018-11-06T15:56:57.582Z,82.31
2018-11-06T15:57:57.509Z,83.22
2018-11-06T15:58:57.504Z,82.95
2018-11-06T15:59:57.510Z,83.32
2018-11-06T16:00:57.483Z,83.01
2018-11-06T16:01:57.436Z,83.26
2018-11-06T16:02:57.449Z,83.87
2018-11-06T16:03:57.431Z,84.38
2018-11-06T16:04:57.512Z,83.76
2018-11-06T16:05:57.453Z,83.70
2018-11-06T16:06:57.543Z,83.81
2018-11-06T16:07:57.528Z,84.01
2018-11-06T16:08:57.494Z,85.03
2018-11-06T16:09:57.457Z,84.92
2018-11-06T16:10:57.394Z,84.86
2018-11-06T16:11:57.363Z,84.56
2018-11-06T16:12:57.330Z,84.45
2018-11-06T16:13:57.324Z,85.47
2018-11-06T16:14:57.306Z,85.17
2018-11-06T16:15:57.286Z,84.90
2018-11-06T16:16:57.407Z,84.70
2018-11-06T16:17:57.465Z,84.70
2018-11-06T16:18:57.261Z,85.21
2018-11-06T16:19:57.317Z,85.00
2018-11-06T16:22:14.456Z,85.14
2018-11-06T16:24:25.352Z,84.84
2018-11-06T16:25:24.890Z,85.35
2018-11-06T16:26:24.766Z,85.14
2018-11-06T16:27:25.036Z,84.64
2018-11-06T16:28:24.816Z,85.25
2018-11-06T16:29:24.721Z,85.08
2018-11-06T16:30:24.733Z,84.47
2018-11-06T16:31:24.691Z,84.78
2018-11-06T16:32:24.728Z,84.78
2018-11-06T16:33:24.753Z,84.98
2018-11-06T16:34:24.651Z,85.39
2018-11-06T16:35:25.394Z,84.98
2018-11-06T16:36:24.636Z,85.02
2018-11-06T16:37:24.621Z,84.88
2018-11-06T16:38:24.666Z,85.13
2018-11-06T16:39:30.214Z,85.02
2018-11-06T16:40:25.454Z,85.74
2018-11-06T16:45:10.553Z,85.53
2018-11-06T16:46:10.227Z,85.43
2018-11-06T16:48:03.782Z,85.98
2018-11-06T16:49:06.052Z,85.77
2018-11-06T16:50:03.453Z,86.29
2018-11-06T17:01:18.425Z,86.43
2018-11-06T17:11:19.077Z,86.73
2018-11-06T17:12:18.698Z,86.98
2018-11-06T17:13:18.736Z,86.57
2018-11-06T17:14:20.848Z,86.98
2018-11-06T17:16:36.043Z,86.98
2018-11-06T17:17:35.525Z,87.59
2018-11-06T17:18:37.468Z,87.29
2018-11-06T17:21:39.850Z,87.29
2018-11-06T17:22:38.819Z,87.29
2018-11-06T17:25:03.813Z,87.43
2018-11-06T17:40:58.580Z,86.14
2018-11-06T17:42:24.975Z,87.47
2018-11-06T17:43:00.623Z,87.67
2018-11-06T17:43:57.760Z,87.67
2018-11-06T17:45:01.103Z,87.57
2018-11-06T17:47:35.553Z,87.20
2018-11-06T17:48:32.553Z,87.57
2018-11-06T17:49:35.663Z,87.67
2018-11-06T17:50:32.542Z,88.12
2018-11-06T17:52:49.070Z,87.77
2018-11-06T17:53:47.203Z,88.39
2018-11-06T17:56:20.894Z,87.88
2018-11-06T17:57:20.720Z,87.92
2018-11-06T17:58:20.647Z,87.41
2018-11-06T17:59:20.776Z,87.82
2018-11-06T18:00:25.375Z,87.92
2018-11-06T18:01:20.812Z,88.94
2018-11-06T18:03:49.017Z,89.35
2018-11-06T18:04:57.329Z,88.94
2018-11-06T18:05:48.469Z,88.94
2018-11-06T18:09:24.022Z,88.64
2018-11-06T18:10:24.262Z,88.84
2018-11-06T18:11:23.807Z,88.64
2018-11-06T18:12:24.056Z,88.64
2018-11-06T18:13:23.818Z,87.61
2018-11-06T18:15:36.733Z,88.53
2018-11-06T18:16:36.383Z,88.64
2018-11-06T18:17:36.744Z,88.94
2018-11-06T18:18:41.390Z,87.92
2018-11-06T18:21:04.666Z,87.92
2018-11-06T18:22:07.159Z,88.43
2018-11-06T18:23:04.057Z,88.84
2018-11-06T18:24:04.185Z,88.12
2018-11-06T18:25:04.038Z,88.12
2018-11-06T18:27:54.028Z,87.71
2018-11-06T18:28:54.144Z,88.84
2018-11-06T18:29:53.805Z,88.84
2018-11-06T18:30:53.763Z,88.94
2018-11-06T18:31:53.762Z,88.33
2018-11-06T18:32:53.713Z,89.25
2018-11-06T18:33:53.722Z,89.45
2018-11-06T18:34:53.697Z,88.84
2018-11-06T18:35:53.850Z,89.25
2018-11-06T18:36:53.670Z,88.78
2018-11-06T18:37:53.661Z,88.68
2018-11-06T18:38:53.656Z,88.68
2018-11-06T18:39:53.672Z,88.68
2018-11-06T18:40:53.659Z,88.47
2018-11-06T18:41:53.671Z,89.09
2018-11-06T18:42:53.902Z,89.70
2018-11-06T18:43:53.612Z,89.80
2018-11-06T18:44:53.572Z,89.90
2018-11-06T18:45:53.747Z,89.09
2018-11-06T18:46:54.099Z,89.43
2018-11-06T18:47:53.609Z,89.53
2018-11-06T18:48:53.576Z,89.53
2018-11-06T18:49:53.716Z,89.12
2018-11-06T18:50:53.632Z,89.53
2018-11-06T18:51:53.619Z,89.33
2018-11-06T18:52:53.579Z,89.37
2018-11-06T18:53:53.515Z,88.92
2018-11-06T18:54:53.529Z,88.62
2018-11-06T18:55:53.535Z,89.06
2018-11-06T18:56:53.514Z,89.47
2018-11-06T18:57:53.597Z,89.47
2018-11-06T18:58:53.519Z,89.17
2018-11-06T18:59:53.513Z,89.89
2018-11-06T19:00:53.467Z,90.70
2018-11-06T19:01:53.485Z,91.16
2018-11-06T19:02:53.401Z,91.83
2018-11-06T19:03:53.534Z,91.77
2018-11-06T19:04:53.427Z,92.44
2018-11-06T19:05:53.383Z,92.90
2018-11-06T19:06:53.573Z,91.97
2018-11-06T19:07:53.343Z,92.08
2018-11-06T19:08:53.721Z,91.26
2018-11-06T19:09:53.327Z,91.77
2018-11-06T19:10:53.427Z,91.87
2018-11-06T19:11:53.623Z,91.77
2018-11-06T19:12:53.318Z,90.89
2018-11-06T19:13:53.317Z,90.84
2018-11-06T19:14:53.530Z,91.20
2018-11-06T19:15:53.601Z,91.09
2018-11-06T19:16:53.387Z,90.84
2018-11-06T19:17:53.226Z,92.12
2018-11-06T19:18:53.263Z,92.83
2018-11-06T19:19:53.248Z,92.74
2018-11-06T19:20:53.284Z,93.15
2018-11-06T19:21:53.225Z,91.91
2018-11-06T19:22:53.205Z,90.69
2018-11-06T19:23:53.398Z,91.40
2018-11-06T19:24:53.264Z,91.24
2018-11-06T19:25:54.047Z,90.83
2018-11-06T19:26:53.120Z,91.44
2018-11-06T19:27:53.157Z,91.86
2018-11-06T19:28:53.096Z,90.99
2018-11-06T19:29:53.080Z,91.03
2018-11-06T19:30:53.097Z,91.14
2018-11-06T19:31:53.109Z,90.83
2018-11-06T19:33:00.254Z,91.35
2018-11-06T19:35:04.331Z,91.03
2018-11-06T19:36:04.797Z,91.38
2018-11-06T19:37:03.735Z,91.44
2018-11-06T19:38:03.786Z,91.49
2018-11-06T19:39:05.153Z,91.08
2018-11-06T19:40:10.489Z,91.28
2018-11-06T19:42:20.288Z,90.87
2018-11-06T19:43:20.206Z,90.87
2018-11-06T19:44:22.790Z,91.28
2018-11-06T19:45:22.483Z,90.97
2018-11-06T19:46:20.071Z,91.38
2018-11-06T19:47:20.118Z,90.97
2018-11-06T19:48:20.031Z,91.18
2018-11-06T19:50:54.302Z,91.59
2018-11-06T19:51:52.870Z,90.97
2018-11-06T19:52:52.984Z,90.77
2018-11-06T19:53:52.790Z,91.49
2018-11-06T19:54:52.622Z,91.22
2018-11-06T19:55:52.956Z,91.53
2018-11-06T19:56:52.648Z,91.12
2018-11-06T19:57:52.585Z,91.12
2018-11-06T19:58:52.607Z,90.81
2018-11-06T19:59:52.607Z,91.53
2018-11-06T20:00:52.927Z,90.91
2018-11-06T20:03:22.546Z,91.02
2018-11-06T20:04:22.256Z,91.37
2018-11-06T20:05:22.357Z,91.78
2018-11-06T20:06:22.253Z,91.06
2018-11-06T20:07:23.238Z,91.57
2018-11-06T20:08:22.321Z,91.27
2018-11-06T20:10:56.514Z,91.37
2018-11-06T20:11:56.659Z,92.29
2018-11-06T20:12:55.794Z,92.40
2018-11-06T20:14:00.821Z,91.88
2018-11-06T20:14:55.761Z,92.40
2018-11-06T20:15:56.687Z,92.70
2018-11-06T20:16:55.822Z,92.40
2018-11-06T20:17:55.745Z,92.70
2018-11-06T20:18:56.638Z,92.60
2018-11-06T20:19:55.596Z,93.12
2018-11-06T20:20:55.594Z,93.21
2018-11-06T20:21:55.650Z,93.21
2018-11-06T20:22:55.612Z,92.33
2018-11-06T21:09:00.173Z,92.36
2018-11-06T21:09:59.782Z,92.36
2018-11-06T21:10:59.726Z,92.57
2018-11-06T21:12:00.619Z,91.95
2018-11-06T21:12:59.660Z,91.53
2018-11-06T21:13:59.666Z,91.64
2018-11-06T21:14:59.615Z,91.33
2018-11-06T21:15:59.576Z,91.85
2018-11-06T21:16:59.633Z,91.53
2018-11-06T21:17:59.661Z,92.77
2018-11-06T21:18:59.591Z,92.30
2018-11-06T21:19:59.633Z,91.78
2018-11-06T21:20:59.549Z,92.30
2018-11-06T21:21:59.522Z,91.68
2018-11-06T21:22:59.511Z,92.10
2018-11-06T21:23:59.494Z,92.50
2018-11-06T21:24:59.670Z,92.50
2018-11-06T21:25:59.727Z,92.30
2018-11-06T21:26:59.604Z,92.46
2018-11-06T21:27:59.478Z,92.82
2018-11-06T21:29:00.027Z,92.50
2018-11-06T21:29:59.500Z,92.50
2018-11-06T21:30:59.416Z,92.30
2018-11-06T21:31:59.399Z,92.44
2018-11-06T21:32:59.454Z,92.65
2018-11-06T21:33:59.476Z,93.23
2018-11-06T21:34:59.383Z,93.02
2018-11-06T21:35:59.357Z,93.16
2018-11-06T21:36:59.397Z,93.33
2018-11-06T21:37:59.411Z,93.16
2018-11-06T21:38:59.360Z,93.16
2018-11-06T21:39:59.327Z,93.02
2018-11-06T21:40:59.343Z,93.58
2018-11-06T21:41:59.312Z,93.48
2018-11-06T21:42:59.281Z,93.27
2018-11-06T21:43:59.311Z,92.34
2018-11-06T21:44:59.261Z,91.62
2018-11-06T21:45:59.241Z,92.34
2018-11-06T21:46:59.284Z,92.34
2018-11-06T21:47:59.226Z,92.76
2018-11-06T21:48:59.212Z,93.48
2018-11-06T21:49:59.236Z,93.37